• Join FlightAware (Why Join?)
  • Login
  • US Flag 
10:13PM EDT


 

Airport Tracker/Info


-or-


 

Live Flight TrackerFlight Track Log ✈ JIA2442 ✈ 31-Jul-2013 ✈ KMGM - KCLT

Flight Track Log - Related Links

Times and Time Zones

All times are in EDT time to prevent confusion due to time zone crossing. See the JIA2442 flight status page for this flight to view local times or setup timezone preferences in your user account.

Time Position Orientation Groundspeed Altitude Reporting Facility
EDT Latitude Longitude Course Direction KTS MPH feet Rate Location/Type
07:18AM 32.3039 -86.4275 47° Northeast 160 184 1,500  Level Atlanta Center
07:19AM 32.3278 -86.4797 298° West 174 200 3,600 1,920 Climbing Atlanta Center
07:20AM 32.3703 -86.4439 35° Northeast 128 147 5,400 2,280 Climbing Atlanta Center
07:21AM 32.4693 -86.1345 55° Northeast  Level FlightAware Approximate
07:21AM 32.4178 -86.3664 54° Northeast 179 206 8,200  Level Atlanta Center
07:22AM 32.5220 -86.0468 55° Northeast  Level FlightAware Approximate
07:22AM 32.4672 -86.2817 55° Northeast 248 285 10,500  Level Atlanta Center
07:23AM 32.5788 -85.9631 47° Northeast  Level FlightAware Approximate
07:23AM 32.5231 -86.2017 50° Northeast 280 322 12,800  Level Atlanta Center
07:24AM 32.5722 -86.1192 55° Northeast 298 343 15,300 2,040 Climbing Atlanta Center
07:25AM 32.6383 -86.0442 44° Northeast 316 364 16,900 1,980 Climbing Atlanta Center
07:26AM 32.7103 -85.9767 38° Northeast 321 369 19,300 1,800 Climbing Atlanta Center
07:27AM 32.7822 -85.9092 38° Northeast 326 375 20,500 960 Climbing Atlanta Center
07:28AM 32.8606 -85.8342 39° Northeast 336 387 21,300 1,020 Climbing Atlanta Center
07:29AM 32.9289 -85.7439 48° Northeast 348 400 22,600 1,260 Climbing Atlanta Center
07:30AM 32.9864 -85.6411 56° Northeast 364 419 23,900 1,260 Climbing Atlanta Center
07:31AM 33.0400 -85.5381 58° Northeast 369 425 25,200 1,140 Climbing Atlanta Center
07:32AM 33.1019 -85.4250 57° Northeast 369 425 26,200 780 Climbing Atlanta Center
07:33AM 33.1614 -85.3167 57° Northeast 376 433 26,800 600 Climbing Atlanta Center
07:34AM 33.2211 -85.2033 58° Northeast 390 449 27,400 660 Climbing Atlanta Center
07:35AM 33.2825 -85.0925 56° Northeast 396 456 28,200 780 Climbing Atlanta Center
07:36AM 33.3439 -84.9764 58° Northeast 402 463 29,000 360 Climbing Atlanta Center
07:37AM 33.4011 -84.8650 58° Northeast 402 463 29,000  Level Atlanta Center
07:38AM 33.4625 -84.7508 57° Northeast 408 470 29,000  Level Atlanta Center
07:39AM 33.5172 -84.6467 58° Northeast 408 470 29,000  Level Atlanta Center
07:40AM 33.5761 -84.5300 59° Northeast 408 470 29,000  Level Atlanta Center
07:41AM 33.6392 -84.3981 60° Northeast 408 470 29,000  Level Atlanta Center
07:42AM 33.6731 -84.2758 72° East 413 475 29,000  Level Atlanta Center
07:43AM 33.7086 -84.1361 73° East 423 487 29,000  Level Atlanta Center
07:44AM 33.7483 -84.0014 70° East 428 493 29,000  Level Atlanta Center
07:45AM 33.7858 -83.8664 71° East 425 489 29,000  Level Atlanta Center
07:46AM 33.8253 -83.7286 71° East 425 489 29,000  Level Atlanta Center
07:47AM 33.8622 -83.5936 72° East 425 489 29,000  Level Atlanta Center
07:48AM 33.9014 -83.4531 71° East 432 497 29,000  Level Atlanta Center
07:49AM 33.9383 -83.3153 72° East 432 497 29,000  Level Atlanta Center
07:50AM 33.9936 -83.1844 63° Northeast 426 490 29,000  Level Atlanta Center
07:51AM 34.0553 -83.0458 62° Northeast 426 490 29,000  Level Atlanta Center
07:52AM 34.1125 -82.9147 62° Northeast 432 497 29,000  Level Atlanta Center
07:53AM 34.1739 -82.7858 60° Northeast 437 503 29,000 -480 Level Atlanta Center
07:54AM 34.2331 -82.6544 61° Northeast 443 510 28,100 -1,260 Descending Atlanta Center
07:55AM 34.2942 -82.5278 60° Northeast 451 519 26,500 -1,620 Descending Atlanta Center
07:56AM 34.3572 -82.3881 61° Northeast 466 536 24,900 -1,800 Descending Atlanta Center
07:57AM 34.4158 -82.2586 61° Northeast 452 520 22,900 -2,280 Descending Atlanta Center
07:58AM 34.4703 -82.1364 62° Northeast 427 491 20,400 -2,520 Descending Atlanta Center
07:59AM 34.5206 -82.0219 62° Northeast 401 461 17,900 -2,400 Descending Atlanta Center
08:00AM 34.5669 -81.9122 63° Northeast 377 434 15,600 -2,220 Descending Atlanta Center
08:01AM 34.6150 -81.8050 61° Northeast 360 414 13,500 -1,860 Descending Atlanta Center
08:02AM 34.6631 -81.6978 61° Northeast 354 407 12,000 -780 Descending Atlanta Center
08:03AM 34.7111 -81.5928 61° Northeast 342 394 12,000  Level Atlanta Center
08:04AM 34.7636 -81.5028 55° Northeast 330 380 12,000  Level Atlanta Center
08:05AM 34.8244 -81.4250 46° Northeast 320 368 12,000 -120 Level Atlanta Center
08:06AM 34.8956 -81.3367 46° Northeast 328 377 11,800 -780 Descending Atlanta Center
08:07AM 34.9564 -81.2561 47° Northeast 325 374 10,500 -1,200 Descending Atlanta Center
08:08AM 35.0050 -81.1911 48° Northeast 320 368 9,500 -780 Descending Atlanta Center
08:09AM 35.0617 -81.1156 47° Northeast 313 360 9,000 -300 Descending Atlanta Center
08:10AM 35.1294 -81.0650 31° Northeast 301 346 9,000 -600 Level Atlanta Center
08:11AM 35.2339 -81.0739 356° North 287 330 7,800 -1,260 Descending Atlanta Center
08:12AM 35.3092 -81.0814 355° North 279 321 6,300 -900 Descending Atlanta Center
08:13AM 35.3844 -81.0864 357° North 264 304 6,000 -660 Descending Atlanta Center
08:15AM 35.4681 -81.0936 356° North 260 299 5,000 -480 Descending Atlanta Center
08:16AM 35.5308 -81.0989 356° North 218 251 5,000  Level Atlanta Center
08:16AM 35.5828 -81.0969 North 209 241 5,000  Level Atlanta Center
08:18AM 35.5978 -81.0275 75° East 211 243 5,000  Level Atlanta Center
08:19AM 35.5597 -81.0008 150° Southeast 182 209 5,000  Level Atlanta Center
08:20AM 35.5011 -80.9981 178° South 182 209 5,000  Level Atlanta Center
08:21AM 35.4550 -80.9919 174° South 184 212 5,000 -480 Level Atlanta Center
08:22AM 35.4028 -80.9864 175° South 186 214 4,100 -960 Descending Atlanta Center
08:23AM 35.3464 -80.9808 175° South 190 219 3,100 -840 Descending Atlanta Center
08:24AM 35.3025 -80.9772 176° South 137 158 2,300 -780 Descending Atlanta Center
08:25AM 35.2647 -80.9736 176° South 131 151 1,500 -840 Descending Atlanta Center